createdAt,value
2022-10-31T00:01:11.844Z,4.50
2022-10-31T00:07:15.257Z,4.40
2022-10-31T00:13:18.707Z,4.13
2022-10-31T00:19:23.599Z,4.85
2022-10-31T00:25:27.117Z,4.47
2022-10-31T00:31:30.537Z,4.20
2022-10-31T00:37:35.365Z,4.32
2022-10-31T00:43:38.780Z,4.60
2022-10-31T00:49:42.138Z,4.97
2022-10-31T00:55:47.299Z,4.63
2022-10-31T01:01:50.727Z,4.75
2022-10-31T01:07:54.403Z,4.70
2022-10-31T01:14:01.691Z,4.63
2022-10-31T01:20:05.923Z,3.90
2022-10-31T01:26:10.650Z,4.72
2022-10-31T01:32:15.899Z,4.10
2022-10-31T01:38:19.442Z,4.82
2022-10-31T01:44:42.180Z,4.15
2022-10-31T01:50:48.382Z,4.55
2022-10-31T01:56:53.892Z,4.30
2022-10-31T02:02:58.050Z,4.88
2022-10-31T02:09:03.479Z,4.47
2022-10-31T02:15:07.961Z,4.80
2022-10-31T02:21:18.144Z,4.82
2022-10-31T02:27:36.426Z,5.03
2022-10-31T02:33:43.938Z,4.97
2022-10-31T02:39:51.615Z,5.78
2022-10-31T02:45:59.532Z,5.05
2022-10-31T02:52:04.338Z,5.40
2022-10-31T02:58:11.246Z,4.90
2022-10-31T03:04:30.461Z,5.13
2022-10-31T03:10:38.317Z,5.97
2022-10-31T03:16:44.971Z,5.60
2022-10-31T03:22:48.715Z,5.70
2022-10-31T03:28:55.450Z,5.30
2022-10-31T03:35:00.286Z,6.13
2022-10-31T03:41:05.244Z,5.90
2022-10-31T03:47:10.147Z,5.45
2022-10-31T03:53:16.935Z,5.63
2022-10-31T03:59:22.709Z,5.60
2022-10-31T04:05:27.600Z,4.88
2022-10-31T04:11:32.694Z,5.88
2022-10-31T04:17:38.468Z,5.07
2022-10-31T04:23:43.370Z,4.75
2022-10-31T04:29:49.854Z,5.70
2022-10-31T04:35:54.399Z,5.13
2022-10-31T04:41:59.152Z,5.32
2022-10-31T04:48:03.062Z,5.22
2022-10-31T04:54:07.432Z,5.22
2022-10-31T05:00:13.286Z,5.15
2022-10-31T05:06:17.517Z,5.07
2022-10-31T05:12:20.935Z,5.63
2022-10-31T05:18:25.829Z,5.55
2022-10-31T05:24:29.314Z,5.53
2022-10-31T05:30:34.028Z,5.88
2022-10-31T05:36:38.921Z,4.88
2022-10-31T05:42:42.411Z,4.82
2022-10-31T05:48:45.766Z,5.35
2022-10-31T05:54:50.697Z,5.28
2022-10-31T06:00:54.134Z,5.55
2022-10-31T06:06:59.174Z,5.10
2022-10-31T06:13:03.915Z,4.78
2022-10-31T06:19:10.791Z,5.35
2022-10-31T06:25:14.154Z,4.68
2022-10-31T06:31:20.812Z,4.43
2022-10-31T06:37:24.211Z,5.45
2022-10-31T06:43:28.416Z,5.65
2022-10-31T06:49:33.623Z,6.72
2022-10-31T06:55:37.342Z,6.20
2022-10-31T07:01:40.943Z,6.93
2022-10-31T07:07:45.715Z,7.63
2022-10-31T07:13:49.551Z,7.60
2022-10-31T07:19:52.949Z,7.05
2022-10-31T07:25:59.459Z,8.18
2022-10-31T07:32:02.995Z,7.43
2022-10-31T07:38:10.194Z,7.22
2022-10-31T07:44:14.959Z,9.13
2022-10-31T07:50:19.274Z,8.77
2022-10-31T07:56:22.925Z,8.48
2022-10-31T08:02:28.294Z,9.88
2022-10-31T08:08:33.497Z,9.85
2022-10-31T08:14:39.506Z,10.25
2022-10-31T08:20:44.430Z,11.30
2022-10-31T08:26:47.832Z,10.45
2022-10-31T08:32:59.849Z,10.95
2022-10-31T08:39:05.218Z,12.25
2022-10-31T08:45:08.860Z,11.02
2022-10-31T08:51:12.783Z,13.27
2022-10-31T08:57:17.575Z,18.00
2022-10-31T09:03:21.624Z,11.82
2022-10-31T09:09:25.002Z,11.18
2022-10-31T09:15:30.457Z,10.23
2022-10-31T09:21:33.864Z,13.80
2022-10-31T09:27:39.459Z,10.40
2022-10-31T09:33:44.283Z,9.75
2022-10-31T09:39:47.866Z,9.63
2022-10-31T09:45:56.377Z,9.38
2022-10-31T09:52:03.247Z,9.75
2022-10-31T09:58:07.231Z,10.52
2022-10-31T10:04:20.586Z,11.30
2022-10-31T10:10:30.628Z,11.43
2022-10-31T10:16:47.510Z,11.55
2022-10-31T10:22:57.125Z,12.02
2022-10-31T10:29:04.615Z,10.88
2022-10-31T10:35:13.931Z,11.52
2022-10-31T10:41:19.501Z,12.05
2022-10-31T10:47:39.774Z,12.38
2022-10-31T10:54:14.800Z,11.15
2022-10-31T11:00:20.834Z,11.10
2022-10-31T11:06:26.935Z,9.73
2022-10-31T11:12:32.660Z,12.75
2022-10-31T11:18:37.870Z,12.20
2022-10-31T11:24:44.870Z,10.43
2022-10-31T11:30:50.792Z,9.30
2022-10-31T11:36:54.331Z,8.98
2022-10-31T11:43:00.744Z,7.93
2022-10-31T11:49:05.958Z,6.30
2022-10-31T11:55:18.228Z,6.18
2022-10-31T12:01:26.975Z,5.80
2022-10-31T12:07:31.862Z,8.15
2022-10-31T12:13:36.899Z,9.73
2022-10-31T12:19:44.856Z,10.95
2022-10-31T12:25:56.345Z,9.52
2022-10-31T12:32:10.477Z,11.45
2022-10-31T12:38:33.257Z,8.73
2022-10-31T12:44:54.722Z,10.75
2022-10-31T12:51:01.435Z,7.82
2022-10-31T12:57:09.113Z,10.83
2022-10-31T13:03:21.833Z,8.77
2022-10-31T13:09:29.059Z,8.25
2022-10-31T13:15:35.961Z,7.28
2022-10-31T13:21:43.043Z,7.70
2022-10-31T13:27:50.974Z,8.65
2022-10-31T13:33:55.782Z,8.57
2022-10-31T13:40:06.498Z,10.20
2022-10-31T13:46:24.101Z,8.73
2022-10-31T13:52:28.839Z,8.60
2022-10-31T13:58:34.400Z,8.57
2022-10-31T14:04:40.595Z,10.55
2022-10-31T14:10:50.728Z,10.40
2022-10-31T14:17:01.307Z,11.32
2022-10-31T14:23:14.914Z,10.32
2022-10-31T14:29:28.805Z,9.32
2022-10-31T14:35:39.548Z,8.93
2022-10-31T14:41:53.109Z,9.35
2022-10-31T14:48:06.920Z,9.27
2022-10-31T14:54:15.780Z,9.98
2022-10-31T15:00:20.057Z,10.27
2022-10-31T15:06:24.412Z,11.77
2022-10-31T15:12:30.324Z,9.50
2022-10-31T15:18:33.913Z,10.30
2022-10-31T15:24:38.348Z,10.35
2022-10-31T15:30:52.092Z,9.63
2022-10-31T15:36:55.579Z,10.10
2022-10-31T15:42:59.745Z,10.65
2022-10-31T15:49:04.859Z,11.30
2022-10-31T15:55:17.690Z,12.93
2022-10-31T16:01:26.371Z,12.10
2022-10-31T16:07:32.656Z,12.65
2022-10-31T16:13:37.664Z,16.35
2022-10-31T16:19:47.100Z,13.50
2022-10-31T16:25:51.932Z,12.27
2022-10-31T16:31:55.297Z,13.00
2022-10-31T16:37:58.737Z,11.90
2022-10-31T16:44:05.076Z,15.30
2022-10-31T16:50:14.732Z,10.45
2022-10-31T16:56:19.117Z,12.30
2022-10-31T17:02:24.357Z,11.88
2022-10-31T17:08:28.150Z,12.48
2022-10-31T17:14:31.653Z,11.63
2022-10-31T17:20:36.503Z,12.70
2022-10-31T17:26:39.868Z,13.10
2022-10-31T17:32:43.586Z,12.82
2022-10-31T17:38:48.393Z,11.55
2022-10-31T17:44:51.957Z,11.48
2022-10-31T17:50:55.544Z,11.15
2022-10-31T17:57:00.306Z,11.50
2022-10-31T18:03:04.786Z,10.43
2022-10-31T18:09:08.742Z,9.90
2022-10-31T18:15:14.092Z,8.75
2022-10-31T18:21:18.000Z,8.15
2022-10-31T18:27:21.597Z,6.90
2022-10-31T18:33:26.461Z,10.73
2022-10-31T18:39:30.352Z,8.15
2022-10-31T18:45:46.665Z,10.70
2022-10-31T18:51:52.818Z,7.88
2022-10-31T18:57:56.336Z,11.38
2022-10-31T19:04:01.434Z,10.00
2022-10-31T19:10:06.863Z,10.90
2022-10-31T19:16:11.154Z,12.25
2022-10-31T19:22:14.649Z,8.80
2022-10-31T19:28:19.422Z,11.98
2022-10-31T19:34:22.897Z,10.73
2022-10-31T19:40:26.363Z,9.57
2022-10-31T19:46:52.345Z,9.02
2022-10-31T19:52:54.586Z,7.13
2022-10-31T19:58:59.770Z,6.57
2022-10-31T20:05:04.641Z,6.28
2022-10-31T20:11:08.145Z,6.20
2022-10-31T20:17:12.532Z,6.63
2022-10-31T20:23:17.634Z,7.07
2022-10-31T20:29:21.346Z,5.53
2022-10-31T20:35:24.729Z,5.70
2022-10-31T20:41:29.972Z,4.90
2022-10-31T20:47:33.373Z,5.30
2022-10-31T20:53:36.849Z,5.78
2022-10-31T20:59:41.689Z,5.30
2022-10-31T21:05:45.117Z,5.40
2022-10-31T21:11:48.528Z,5.97
2022-10-31T21:17:53.439Z,5.68
2022-10-31T21:23:57.711Z,5.30
2022-10-31T21:30:01.550Z,5.78
2022-10-31T21:36:07.341Z,4.70
2022-10-31T21:42:11.537Z,5.18
2022-10-31T21:48:14.931Z,5.55
2022-10-31T21:54:30.366Z,6.40
2022-10-31T22:00:33.763Z,5.28
2022-10-31T22:06:37.839Z,4.88
2022-10-31T22:12:42.657Z,6.90
2022-10-31T22:18:46.675Z,6.35
2022-10-31T22:24:50.044Z,6.13
2022-10-31T22:30:54.825Z,5.03
2022-10-31T22:36:58.232Z,6.28
2022-10-31T22:43:01.851Z,4.68
2022-10-31T22:49:07.665Z,8.98
2022-10-31T22:55:11.583Z,4.90
2022-10-31T23:01:16.184Z,7.13
2022-10-31T23:07:23.213Z,4.43
2022-10-31T23:13:45.042Z,4.15
2022-10-31T23:19:48.619Z,4.07
2022-10-31T23:26:11.003Z,4.70
2022-10-31T23:32:16.652Z,3.72
2022-10-31T23:38:20.119Z,3.92
2022-10-31T23:44:24.948Z,4.18
2022-10-31T23:50:28.558Z,4.63
2022-10-31T23:56:31.891Z,3.28
